createdAt,value
2018-07-04T00:00:05.284Z,13.70
2018-07-04T00:01:05.093Z,12.30
2018-07-04T00:02:04.748Z,11.80
2018-07-04T00:03:05.516Z,15.10
2018-07-04T00:04:05.355Z,12.80
2018-07-04T00:05:04.888Z,13.70
2018-07-04T00:06:04.793Z,11.30
2018-07-04T00:07:05.389Z,13.90
2018-07-04T00:08:04.996Z,14.60
2018-07-04T00:09:04.500Z,14.80
2018-07-04T00:10:04.909Z,14.50
2018-07-04T00:11:26.140Z,11.20
2018-07-04T00:12:26.855Z,17.50
2018-07-04T00:13:26.574Z,14.60
2018-07-04T00:14:26.559Z,17.60
2018-07-04T00:15:26.384Z,13.30
2018-07-04T00:16:25.866Z,13.50
2018-07-04T00:17:26.283Z,15.60
2018-07-04T00:18:26.783Z,13.40
2018-07-04T00:19:26.113Z,13.60
2018-07-04T00:20:48.273Z,15.60
2018-07-04T00:21:48.878Z,13.80
2018-07-04T00:22:48.559Z,17.00
2018-07-04T00:23:48.955Z,12.70
2018-07-04T00:25:31.113Z,14.30
2018-07-04T00:26:31.485Z,14.90
2018-07-04T00:27:31.350Z,16.50
2018-07-04T00:28:30.836Z,14.70
2018-07-04T00:29:31.386Z,16.30
2018-07-04T00:30:30.990Z,19.10
2018-07-04T00:31:31.957Z,14.10
2018-07-04T00:32:31.757Z,16.30
2018-07-04T00:33:31.770Z,16.10
2018-07-04T00:34:52.347Z,18.40
2018-07-04T00:35:53.151Z,19.90
2018-07-04T00:36:52.797Z,16.90
2018-07-04T00:37:53.287Z,12.40
2018-07-04T00:38:52.875Z,12.60
2018-07-04T00:39:52.566Z,12.00
2018-07-04T00:41:14.151Z,15.80
2018-07-04T00:42:14.526Z,18.10
2018-07-04T00:43:15.138Z,12.00
2018-07-04T00:44:35.977Z,15.80
2018-07-04T00:45:36.279Z,16.60
2018-07-04T00:46:36.667Z,15.50
2018-07-04T00:47:36.287Z,17.50
2018-07-04T00:48:36.592Z,15.60
2018-07-04T00:49:37.085Z,18.20
2018-07-04T00:50:36.587Z,27.50
2018-07-04T00:51:36.488Z,16.70
2018-07-04T00:52:36.319Z,17.10
2018-07-04T00:53:36.176Z,20.10
2018-07-04T00:54:37.018Z,17.10
2018-07-04T00:55:36.753Z,16.80
2018-07-04T00:56:36.162Z,16.70
2018-07-04T00:57:37.072Z,16.90
2018-07-04T00:58:36.650Z,22.80
2018-07-04T00:59:36.260Z,21.50
2018-07-04T01:00:37.871Z,14.70
2018-07-04T01:01:41.789Z,18.30
2018-07-04T01:02:36.282Z,16.40
2018-07-04T01:03:36.734Z,19.00
2018-07-04T01:04:36.296Z,18.40
2018-07-04T01:05:36.895Z,18.60
2018-07-04T01:06:36.423Z,19.20
2018-07-04T01:07:37.104Z,20.90
2018-07-04T01:08:58.341Z,14.80
2018-07-04T01:09:58.953Z,13.50
2018-07-04T01:10:58.464Z,13.70
2018-07-04T01:11:58.921Z,18.70
2018-07-04T01:12:58.764Z,19.10
2018-07-04T01:13:58.550Z,13.80
2018-07-04T01:14:59.293Z,14.60
2018-07-04T01:15:58.955Z,13.30
2018-07-04T01:16:58.552Z,13.60
2018-07-04T01:19:03.047Z,15.90
2018-07-04T01:20:04.375Z,16.00
2018-07-04T01:21:03.157Z,14.80
2018-07-04T01:22:03.452Z,22.40
2018-07-04T01:23:02.931Z,13.40
2018-07-04T01:24:03.517Z,15.50
2018-07-04T01:25:03.131Z,16.00
2018-07-04T01:26:03.708Z,17.80
2018-07-04T01:27:03.648Z,16.90
2018-07-04T01:28:03.176Z,20.50
2018-07-04T01:29:03.796Z,17.70
2018-07-04T01:30:03.698Z,21.30
2018-07-04T01:31:03.535Z,12.70
2018-07-04T01:32:03.123Z,15.40
2018-07-04T01:33:03.684Z,17.70
2018-07-04T01:34:03.518Z,17.00
2018-07-04T01:35:24.703Z,17.90
2018-07-04T01:36:25.453Z,15.50
2018-07-04T01:37:25.197Z,16.90
2018-07-04T01:38:25.058Z,16.50
2018-07-04T01:39:24.520Z,20.00
2018-07-04T01:40:25.145Z,23.40
2018-07-04T01:41:24.615Z,19.00
2018-07-04T01:42:25.313Z,16.20
2018-07-04T01:43:24.815Z,20.60
2018-07-04T01:44:25.526Z,21.90
2018-07-04T01:45:24.968Z,18.50
2018-07-04T01:46:46.242Z,18.30
2018-07-04T01:47:46.995Z,18.60
2018-07-04T01:48:46.492Z,17.00
2018-07-04T01:50:07.559Z,21.00
2018-07-04T01:51:08.177Z,16.90
2018-07-04T01:52:07.708Z,19.80
2018-07-04T01:53:29.799Z,16.80
2018-07-04T01:54:30.766Z,21.00
2018-07-04T01:55:30.180Z,23.50
2018-07-04T01:56:50.973Z,20.00
2018-07-04T01:57:51.879Z,21.60
2018-07-04T01:59:12.452Z,21.40
2018-07-04T02:00:34.182Z,18.90
2018-07-04T02:01:34.723Z,23.10
2018-07-04T02:02:55.349Z,18.50
2018-07-04T02:03:55.925Z,17.00
2018-07-04T02:04:56.509Z,18.50
2018-07-04T02:05:55.828Z,22.10
2018-07-04T02:06:55.630Z,17.50
2018-07-04T02:07:56.184Z,22.30
2018-07-04T02:08:55.667Z,20.60
2018-07-04T02:09:56.412Z,24.50
2018-07-04T02:10:56.216Z,21.10
2018-07-04T02:11:55.583Z,21.00
2018-07-04T02:12:56.307Z,21.40
2018-07-04T02:13:55.718Z,23.50
2018-07-04T02:14:56.487Z,19.20
2018-07-04T02:16:16.933Z,24.80
2018-07-04T02:17:38.809Z,20.20
2018-07-04T02:18:39.383Z,18.90
2018-07-04T02:19:38.812Z,22.70
2018-07-04T02:20:39.629Z,19.50
2018-07-04T02:22:00.477Z,17.00
2018-07-04T02:23:01.139Z,21.10
2018-07-04T02:24:00.715Z,24.30
2018-07-04T02:25:01.260Z,27.50
2018-07-04T02:26:00.835Z,25.90
2018-07-04T02:27:22.484Z,23.50
2018-07-04T02:28:23.022Z,21.10
2018-07-04T02:29:44.646Z,23.00
2018-07-04T02:30:45.095Z,27.00
2018-07-04T02:31:45.518Z,23.10
2018-07-04T02:32:44.930Z,21.00
2018-07-04T02:33:45.548Z,20.90
2018-07-04T02:34:44.894Z,24.20
2018-07-04T02:35:45.370Z,23.00
2018-07-04T02:36:44.862Z,21.00
2018-07-04T02:38:06.502Z,23.20
2018-07-04T02:39:07.181Z,22.60
2018-07-04T02:40:07.078Z,24.30
2018-07-04T02:41:07.595Z,22.30
2018-07-04T02:42:07.452Z,22.40
2018-07-04T02:43:07.513Z,27.00
2018-07-04T02:44:07.028Z,27.60
2018-07-04T02:45:07.652Z,25.70
2018-07-04T02:46:07.490Z,26.70
2018-07-04T02:47:07.184Z,23.60
2018-07-04T02:48:07.011Z,23.10
2018-07-04T02:49:29.486Z,25.80
2018-07-04T02:50:30.385Z,24.60
2018-07-04T02:51:29.843Z,20.00
2018-07-04T02:52:30.649Z,24.10
2018-07-04T02:53:30.561Z,24.60
2018-07-04T02:54:30.392Z,27.30
2018-07-04T02:55:30.267Z,28.80
2018-07-04T02:56:29.748Z,29.10
2018-07-04T02:57:30.318Z,24.30
2018-07-04T02:58:30.329Z,18.50
2018-07-04T02:59:29.900Z,23.40
2018-07-04T03:00:30.626Z,23.10
2018-07-04T03:01:30.186Z,24.90
2018-07-04T03:02:51.090Z,26.60
2018-07-04T03:03:51.555Z,21.10
2018-07-04T03:04:51.120Z,26.20
2018-07-04T03:05:51.537Z,22.50
2018-07-04T03:06:52.062Z,24.90
2018-07-04T03:07:51.740Z,25.90
2018-07-04T03:08:51.853Z,24.20
2018-07-04T03:09:51.646Z,23.60
2018-07-04T03:10:51.260Z,23.60
2018-07-04T03:11:52.026Z,24.60
2018-07-04T03:12:51.971Z,23.30
2018-07-04T03:13:51.574Z,25.30
2018-07-04T03:15:35.472Z,23.80
2018-07-04T03:16:35.928Z,28.20
2018-07-04T03:17:59.094Z,24.60
2018-07-04T03:19:00.002Z,26.20
2018-07-04T03:19:59.592Z,24.40
2018-07-04T03:21:00.234Z,26.90
2018-07-04T03:22:21.294Z,28.90
2018-07-04T03:23:22.145Z,32.30
2018-07-04T03:24:21.875Z,27.00
2018-07-04T03:25:43.222Z,29.80
2018-07-04T03:26:43.995Z,28.30
2018-07-04T03:27:43.870Z,31.10
2018-07-04T03:28:43.410Z,27.30
2018-07-04T03:29:43.879Z,29.30
2018-07-04T03:30:43.249Z,28.10
2018-07-04T03:31:43.913Z,29.70
2018-07-04T03:33:04.667Z,29.20
2018-07-04T03:34:04.954Z,23.90
2018-07-04T03:35:04.928Z,27.00
2018-07-04T03:36:04.968Z,31.20
2018-07-04T03:37:05.587Z,29.80
2018-07-04T03:38:05.095Z,25.40
2018-07-04T03:39:04.756Z,26.00
2018-07-04T03:40:05.277Z,29.40
2018-07-04T03:41:26.467Z,26.40
2018-07-04T03:42:48.500Z,26.80
2018-07-04T03:43:49.029Z,28.90
2018-07-04T03:44:48.945Z,28.00
2018-07-04T03:45:48.406Z,30.70
2018-07-04T03:46:48.860Z,31.70
2018-07-04T03:47:48.407Z,31.20
2018-07-04T03:48:48.834Z,31.00
2018-07-04T03:49:48.757Z,29.30
2018-07-04T03:50:49.322Z,29.50
2018-07-04T03:51:49.051Z,28.10
2018-07-04T03:52:48.671Z,25.20
2018-07-04T03:53:49.545Z,29.60
2018-07-04T03:54:49.197Z,30.50
2018-07-04T03:55:48.868Z,27.10
2018-07-04T03:56:49.237Z,31.30
2018-07-04T03:57:48.905Z,33.70
2018-07-04T03:58:48.432Z,35.10
2018-07-04T03:59:48.890Z,33.90
2018-07-04T04:00:48.735Z,29.00
2018-07-04T04:01:49.631Z,31.40
2018-07-04T04:03:12.807Z,31.80
2018-07-04T04:04:13.448Z,31.90
2018-07-04T04:05:13.273Z,28.80
2018-07-04T04:06:14.029Z,26.10
2018-07-04T04:07:36.971Z,30.50
2018-07-04T04:08:37.979Z,29.70
2018-07-04T04:10:01.590Z,35.40
2018-07-04T04:11:02.365Z,25.60
2018-07-04T04:12:02.017Z,26.70
2018-07-04T04:13:01.644Z,30.10
2018-07-04T04:14:01.334Z,26.40
2018-07-04T04:15:01.938Z,28.70
2018-07-04T04:16:01.773Z,29.40
2018-07-04T04:17:02.229Z,26.70
2018-07-04T04:18:02.012Z,25.10
2018-07-04T04:19:01.795Z,26.30
2018-07-04T04:20:01.534Z,28.70
2018-07-04T04:21:02.142Z,29.50
2018-07-04T04:22:01.544Z,28.10
2018-07-04T04:23:02.378Z,29.30
2018-07-04T04:24:02.071Z,32.90
2018-07-04T04:25:01.467Z,28.60
2018-07-04T04:26:02.274Z,28.40
2018-07-04T04:27:02.058Z,29.20
2018-07-04T04:28:01.652Z,25.00
2018-07-04T04:29:02.510Z,30.30
2018-07-04T04:30:02.419Z,25.80
2018-07-04T04:31:02.287Z,30.80
2018-07-04T04:32:02.029Z,37.60
2018-07-04T04:33:23.390Z,41.60
2018-07-04T04:34:24.028Z,29.60
2018-07-04T04:35:23.964Z,24.80
2018-07-04T04:36:23.803Z,27.30
2018-07-04T04:37:23.287Z,26.70
2018-07-04T04:38:24.120Z,25.30
2018-07-04T04:39:23.641Z,24.50
2018-07-04T04:40:23.385Z,25.30
2018-07-04T04:41:24.311Z,21.40
2018-07-04T04:42:24.106Z,28.50
2018-07-04T04:43:23.757Z,21.30
2018-07-04T04:44:23.483Z,23.90
2018-07-04T04:45:24.135Z,26.80
2018-07-04T04:46:44.980Z,27.20
2018-07-04T04:47:45.748Z,22.80
2018-07-04T04:48:45.376Z,23.20
2018-07-04T04:49:45.444Z,24.50
2018-07-04T04:50:45.061Z,26.20
2018-07-04T04:51:45.749Z,27.90
2018-07-04T04:52:55.292Z,30.60
2018-07-04T04:53:45.754Z,24.90
2018-07-04T04:54:48.448Z,24.10
2018-07-04T04:55:45.660Z,25.70
2018-07-04T04:56:46.979Z,23.40
2018-07-04T04:57:45.760Z,22.00
2018-07-04T04:58:45.514Z,23.20
2018-07-04T04:59:45.359Z,23.40
2018-07-04T05:01:07.743Z,30.30
2018-07-04T05:02:08.292Z,20.90
2018-07-04T05:03:08.008Z,25.40
2018-07-04T05:04:07.967Z,21.30
2018-07-04T05:05:07.986Z,24.10
2018-07-04T05:06:12.644Z,24.50
2018-07-04T05:07:08.206Z,22.20
2018-07-04T05:08:31.125Z,22.40
2018-07-04T05:09:33.001Z,23.80
2018-07-04T05:10:31.804Z,26.80
2018-07-04T05:11:32.436Z,25.00
2018-07-04T05:12:30.926Z,21.90
2018-07-04T05:13:53.385Z,20.40
2018-07-04T05:14:53.971Z,19.10
2018-07-04T05:15:54.880Z,20.80
2018-07-04T05:16:53.775Z,24.00
2018-07-04T05:17:55.215Z,27.00
2018-07-04T05:18:55.479Z,20.60
2018-07-04T05:19:55.806Z,20.60
2018-07-04T05:20:56.129Z,26.20
2018-07-04T05:21:59.747Z,23.50
2018-07-04T05:23:20.747Z,22.80
2018-07-04T05:24:20.933Z,29.00
2018-07-04T05:25:20.182Z,17.90
2018-07-04T05:26:19.776Z,21.20
2018-07-04T05:27:20.228Z,22.30
2018-07-04T05:28:20.648Z,22.10
2018-07-04T05:29:19.487Z,21.40
2018-07-04T05:30:20.288Z,22.80
2018-07-04T05:31:19.732Z,22.80
2018-07-04T05:32:20.398Z,24.00
2018-07-04T05:33:20.399Z,21.70
2018-07-04T05:34:20.207Z,20.60
2018-07-04T05:35:20.148Z,25.30
2018-07-04T05:36:20.053Z,25.40
2018-07-04T05:37:41.769Z,19.40
2018-07-04T05:38:42.570Z,25.20
2018-07-04T05:39:42.535Z,21.60
2018-07-04T05:40:42.325Z,21.10
2018-07-04T05:42:24.865Z,25.80
2018-07-04T05:43:26.041Z,19.00
2018-07-04T05:44:26.114Z,21.30
2018-07-04T05:45:25.729Z,22.60
2018-07-04T05:46:25.842Z,24.10
2018-07-04T05:47:48.912Z,20.80
2018-07-04T05:48:49.425Z,23.80
2018-07-04T05:49:49.046Z,20.20
2018-07-04T05:50:50.551Z,22.80
2018-07-04T05:51:49.076Z,18.90
2018-07-04T05:52:50.202Z,18.20
2018-07-04T05:53:49.323Z,26.90
2018-07-04T05:54:49.333Z,17.50
2018-07-04T05:55:49.114Z,25.90
2018-07-04T05:56:49.735Z,24.50
2018-07-04T05:57:49.570Z,22.50
2018-07-04T05:58:49.666Z,19.00
2018-07-04T05:59:49.462Z,22.10
2018-07-04T06:00:49.322Z,19.20
2018-07-04T06:01:52.238Z,15.50
2018-07-04T06:02:48.921Z,21.90
2018-07-04T06:03:49.881Z,19.30
2018-07-04T06:04:49.479Z,24.10
2018-07-04T06:05:49.331Z,20.30
2018-07-04T06:06:49.103Z,17.30
2018-07-04T06:07:49.590Z,19.60
2018-07-04T06:08:49.204Z,16.70
2018-07-04T06:10:12.904Z,17.10
2018-07-04T06:11:13.941Z,14.90
2018-07-04T06:12:37.069Z,19.10
2018-07-04T06:13:37.997Z,12.70
2018-07-04T06:14:38.120Z,20.20
2018-07-04T06:15:38.009Z,16.10
2018-07-04T06:16:37.838Z,19.30
2018-07-04T06:17:37.408Z,16.20
2018-07-04T06:18:38.321Z,19.10
2018-07-04T06:19:36.982Z,16.50
2018-07-04T06:20:38.076Z,12.80
2018-07-04T06:21:37.754Z,19.00
2018-07-04T06:22:37.611Z,16.40
2018-07-04T06:23:38.204Z,16.20
2018-07-04T06:24:38.093Z,17.30
2018-07-04T06:25:37.760Z,17.30
2018-07-04T06:26:37.886Z,23.50
2018-07-04T06:27:37.483Z,19.30
2018-07-04T06:28:37.558Z,18.80
2018-07-04T06:29:37.072Z,15.10
2018-07-04T06:30:38.119Z,14.20
2018-07-04T06:31:37.820Z,18.90
2018-07-04T06:32:37.929Z,15.70
2018-07-04T06:33:37.597Z,15.60
2018-07-04T06:34:37.249Z,17.20
2018-07-04T06:35:37.333Z,16.90
2018-07-04T06:36:37.033Z,14.20
2018-07-04T06:38:00.736Z,14.80
2018-07-04T06:39:01.844Z,15.80
2018-07-04T06:40:01.919Z,17.90
2018-07-04T06:41:02.601Z,16.30
2018-07-04T06:42:01.612Z,17.10
2018-07-04T06:43:01.377Z,20.40
2018-07-04T06:44:01.086Z,17.10
2018-07-04T06:45:01.020Z,13.70
2018-07-04T06:46:01.850Z,17.70
2018-07-04T06:47:01.484Z,15.20
2018-07-04T06:48:01.621Z,16.60
2018-07-04T06:49:01.410Z,14.30
2018-07-04T06:50:01.451Z,15.60
2018-07-04T06:51:01.460Z,11.40
2018-07-04T06:52:01.003Z,13.70
2018-07-04T06:53:01.394Z,14.30
2018-07-04T06:54:01.472Z,13.40
2018-07-04T06:55:01.636Z,15.40
2018-07-04T06:56:02.015Z,13.30
2018-07-04T06:57:01.657Z,16.10
2018-07-04T06:58:25.369Z,17.00
2018-07-04T06:59:26.336Z,14.10
2018-07-04T07:00:26.191Z,13.10
2018-07-04T07:01:25.932Z,14.40
2018-07-04T07:02:25.876Z,15.80
2018-07-04T07:03:25.497Z,13.20
2018-07-04T07:04:25.392Z,13.00
2018-07-04T07:05:48.595Z,14.30
2018-07-04T07:06:49.491Z,14.80
2018-07-04T07:07:49.402Z,12.30
2018-07-04T07:08:48.940Z,13.90
2018-07-04T07:09:49.059Z,19.00
2018-07-04T07:10:48.696Z,15.90
2018-07-04T07:12:37.294Z,14.80
2018-07-04T07:14:01.282Z,19.70
2018-07-04T07:15:02.231Z,15.30
2018-07-04T07:16:02.576Z,18.40
2018-07-04T07:17:01.653Z,15.40
2018-07-04T07:18:01.132Z,15.20
2018-07-04T07:19:02.115Z,14.30
2018-07-04T07:20:01.862Z,11.20
2018-07-04T07:21:01.531Z,14.50
2018-07-04T07:22:01.181Z,13.10
2018-07-04T07:23:49.312Z,14.60
2018-07-04T07:24:50.045Z,13.30
2018-07-04T07:26:13.775Z,13.20
2018-07-04T07:27:37.100Z,12.20
2018-07-04T07:28:37.924Z,16.10
2018-07-04T07:29:37.886Z,15.20
2018-07-04T07:30:37.644Z,12.90
2018-07-04T07:31:37.267Z,11.70
2018-07-04T07:32:38.173Z,12.60
2018-07-04T07:33:38.024Z,14.60
2018-07-04T07:34:37.820Z,15.20
2018-07-04T07:35:37.593Z,16.00
2018-07-04T07:36:37.411Z,14.00
2018-07-04T07:37:37.207Z,14.40
2018-07-04T07:38:37.951Z,11.80
2018-07-04T07:39:37.669Z,13.40
2018-07-04T07:40:37.226Z,13.70
2018-07-04T07:41:38.174Z,11.80
2018-07-04T07:42:37.925Z,13.70
2018-07-04T07:43:38.042Z,14.20
2018-07-04T07:44:37.956Z,9.50
2018-07-04T07:45:37.709Z,16.00
2018-07-04T07:46:37.736Z,11.70
2018-07-04T07:47:37.951Z,16.40
2018-07-04T07:48:37.737Z,10.50
2018-07-04T07:49:37.867Z,11.40
2018-07-04T07:50:38.546Z,13.40
2018-07-04T07:51:37.465Z,14.40
2018-07-04T07:52:37.813Z,12.40
2018-07-04T07:53:37.716Z,13.80
2018-07-04T07:54:37.544Z,11.90
2018-07-04T07:55:37.490Z,10.20
2018-07-04T07:56:37.458Z,13.50
2018-07-04T07:58:24.791Z,11.40
2018-07-04T07:59:24.558Z,12.80
2018-07-04T08:00:25.647Z,17.60
2018-07-04T08:01:27.089Z,12.90
2018-07-04T08:02:24.913Z,14.00
2018-07-04T08:03:26.072Z,13.80
2018-07-04T08:04:24.757Z,12.20
2018-07-04T08:05:25.424Z,11.30
2018-07-04T08:06:25.199Z,11.10
2018-07-04T08:07:25.074Z,14.10
2018-07-04T08:08:25.023Z,10.60
2018-07-04T08:09:24.773Z,12.80
2018-07-04T08:10:24.958Z,10.50
2018-07-04T08:11:25.416Z,15.70
2018-07-04T08:12:25.061Z,13.00
2018-07-04T08:13:24.855Z,14.40
2018-07-04T08:14:24.698Z,13.40
2018-07-04T08:15:25.456Z,11.00
2018-07-04T08:16:25.537Z,16.20
2018-07-04T08:17:25.272Z,11.60
2018-07-04T08:18:25.242Z,12.20
2018-07-04T08:19:25.851Z,15.50
2018-07-04T08:20:25.137Z,9.60
2018-07-04T08:21:24.796Z,11.50
2018-07-04T08:22:48.902Z,11.60
2018-07-04T08:23:49.732Z,8.50
2018-07-04T08:24:49.669Z,15.10
2018-07-04T08:25:49.382Z,10.40
2018-07-04T08:26:49.104Z,10.70
2018-07-04T08:27:50.117Z,12.10
2018-07-04T08:28:49.781Z,13.10
2018-07-04T08:29:49.634Z,9.00
2018-07-04T08:31:36.355Z,10.30
2018-07-04T08:32:37.089Z,12.60
2018-07-04T08:33:36.943Z,12.00
2018-07-04T08:34:37.058Z,12.60
2018-07-04T08:35:37.482Z,9.70
2018-07-04T08:36:37.614Z,13.20
2018-07-04T08:37:37.250Z,10.60
2018-07-04T08:39:01.184Z,10.60
2018-07-04T08:40:01.021Z,12.90
2018-07-04T08:41:01.953Z,9.50
2018-07-04T08:42:25.132Z,8.10
2018-07-04T08:43:26.112Z,10.90
2018-07-04T08:44:25.962Z,17.90
2018-07-04T08:45:25.580Z,8.40
2018-07-04T08:46:25.887Z,12.50
2018-07-04T08:48:13.638Z,8.50
2018-07-04T08:49:13.419Z,11.30
2018-07-04T08:50:14.338Z,9.70
2018-07-04T08:51:38.911Z,10.50
2018-07-04T08:52:38.594Z,11.30
2018-07-04T08:53:39.576Z,11.20
2018-07-04T08:54:38.524Z,11.30
2018-07-04T08:55:38.560Z,6.60
2018-07-04T08:56:38.329Z,11.10
2018-07-04T08:57:38.338Z,9.40
2018-07-04T08:58:37.913Z,7.00
2018-07-04T08:59:38.661Z,9.60
2018-07-04T09:00:38.499Z,7.70
2018-07-04T09:01:38.533Z,8.90
2018-07-04T09:02:38.469Z,9.60
2018-07-04T09:03:38.352Z,11.30
2018-07-04T09:04:38.106Z,7.50
2018-07-04T09:05:38.768Z,11.20
2018-07-04T09:06:38.916Z,8.30
2018-07-04T09:07:38.719Z,12.90
2018-07-04T09:08:39.366Z,13.00
2018-07-04T09:09:38.068Z,15.40
2018-07-04T09:10:38.774Z,14.80
2018-07-04T09:11:38.478Z,7.60
2018-07-04T09:12:38.714Z,8.20
2018-07-04T09:13:38.535Z,12.80
2018-07-04T09:14:38.395Z,8.90
2018-07-04T09:15:38.329Z,8.90
2018-07-04T09:16:38.121Z,9.60
2018-07-04T09:17:38.832Z,11.20
2018-07-04T09:18:38.868Z,9.20
2018-07-04T09:20:25.753Z,9.10
2018-07-04T09:21:50.464Z,8.00
2018-07-04T09:22:51.320Z,10.20
2018-07-04T09:24:14.374Z,8.80
2018-07-04T09:25:15.447Z,13.60
2018-07-04T09:26:15.304Z,9.90
2018-07-04T09:27:15.445Z,10.10
2018-07-04T09:28:16.083Z,10.50
2018-07-04T09:29:14.995Z,9.70
2018-07-04T09:31:01.661Z,7.10
2018-07-04T09:32:02.402Z,8.80
2018-07-04T09:33:02.269Z,10.40
2018-07-04T09:34:02.350Z,10.70
2018-07-04T09:35:01.826Z,6.30
2018-07-04T09:36:02.552Z,9.90
2018-07-04T09:37:02.348Z,8.00
2018-07-04T09:38:02.512Z,9.10
2018-07-04T09:39:02.089Z,11.00
2018-07-04T09:40:01.670Z,8.80
2018-07-04T09:41:02.354Z,16.10
2018-07-04T09:42:02.419Z,7.80
2018-07-04T09:43:02.478Z,11.00
2018-07-04T09:44:25.845Z,9.80
2018-07-04T09:45:26.436Z,12.90
2018-07-04T09:46:26.103Z,10.60
2018-07-04T09:47:26.171Z,11.20
2018-07-04T09:48:49.727Z,6.80
2018-07-04T09:49:49.773Z,9.20
2018-07-04T09:50:51.114Z,9.40
2018-07-04T09:51:50.190Z,9.70
2018-07-04T09:52:49.902Z,14.80
2018-07-04T09:53:49.717Z,13.00
2018-07-04T09:54:49.997Z,10.40
2018-07-04T09:55:51.924Z,8.60
2018-07-04T09:56:49.752Z,7.70
2018-07-04T09:58:12.748Z,11.50
2018-07-04T09:59:36.851Z,7.00
2018-07-04T10:00:37.632Z,10.60
2018-07-04T10:01:48.557Z,12.20
2018-07-04T10:02:37.990Z,11.80
2018-07-04T10:03:36.669Z,9.50
2018-07-04T10:04:58.756Z,10.80
2018-07-04T10:05:36.585Z,12.60
2018-07-04T10:06:45.630Z,6.70
2018-07-04T10:07:40.268Z,9.90
2018-07-04T10:08:37.130Z,8.40
2018-07-04T10:09:37.317Z,13.50
2018-07-04T10:10:37.307Z,7.10
2018-07-04T10:11:37.420Z,12.30
2018-07-04T10:13:01.003Z,10.00
2018-07-04T10:14:01.695Z,7.00
2018-07-04T10:15:23.260Z,7.00
2018-07-04T10:17:11.773Z,15.00
2018-07-04T10:18:11.798Z,9.10
2018-07-04T10:19:11.497Z,8.10
2018-07-04T10:20:35.200Z,8.40
2018-07-04T10:21:36.033Z,8.00
2018-07-04T10:22:36.331Z,11.70
2018-07-04T10:23:36.050Z,9.60
2018-07-04T10:24:37.291Z,10.30
2018-07-04T10:25:36.139Z,10.30
2018-07-04T10:26:36.448Z,9.00
2018-07-04T10:27:36.182Z,7.50
2018-07-04T10:28:36.166Z,9.80
2018-07-04T10:29:59.816Z,7.60
2018-07-04T10:31:00.575Z,8.30
2018-07-04T10:32:04.063Z,8.00
2018-07-04T10:32:59.664Z,9.30
2018-07-04T10:34:00.820Z,9.70
2018-07-04T10:35:00.847Z,9.10
2018-07-04T10:36:00.994Z,15.60
2018-07-04T10:36:59.606Z,8.90
2018-07-04T10:38:00.717Z,10.50
2018-07-04T10:39:00.833Z,8.10
2018-07-04T10:40:00.527Z,11.60
2018-07-04T10:41:00.298Z,6.80
2018-07-04T10:42:00.183Z,8.80
2018-07-04T10:42:59.781Z,6.40
2018-07-04T10:44:00.061Z,8.00
2018-07-04T10:44:59.898Z,11.50
2018-07-04T10:46:00.599Z,6.80
2018-07-04T10:47:00.219Z,9.30
2018-07-04T10:48:00.400Z,8.40
2018-07-04T10:49:00.237Z,10.10
2018-07-04T10:50:23.912Z,12.40
2018-07-04T10:51:24.562Z,9.90
2018-07-04T10:52:24.514Z,9.40
2018-07-04T10:53:24.362Z,6.10
2018-07-04T10:54:47.978Z,6.90
2018-07-04T10:55:48.777Z,13.10
2018-07-04T10:56:48.847Z,10.10
2018-07-04T10:57:47.860Z,4.90
2018-07-04T10:58:48.795Z,8.50
2018-07-04T10:59:48.748Z,8.20
2018-07-04T11:01:34.004Z,8.00
2018-07-04T11:02:36.138Z,8.10
2018-07-04T11:03:33.940Z,7.00
2018-07-04T11:04:57.871Z,7.60
2018-07-04T11:05:58.464Z,6.70
2018-07-04T11:06:58.045Z,6.90
2018-07-04T11:07:59.032Z,6.90
2018-07-04T11:08:58.699Z,7.10
2018-07-04T11:09:58.720Z,9.20
2018-07-04T11:10:58.912Z,10.90
2018-07-04T11:11:59.570Z,6.90
2018-07-04T11:12:58.805Z,11.10
2018-07-04T11:13:58.612Z,8.00
2018-07-04T11:14:58.404Z,8.50
2018-07-04T11:15:58.173Z,7.10
2018-07-04T11:16:58.174Z,9.80
2018-07-04T11:17:57.772Z,8.80
2018-07-04T11:18:58.766Z,8.70
2018-07-04T11:19:58.554Z,7.40
2018-07-04T11:20:58.235Z,6.30
2018-07-04T11:21:58.031Z,10.00
2018-07-04T11:22:58.775Z,8.30
2018-07-04T11:23:58.516Z,5.20
2018-07-04T11:25:22.075Z,8.50
2018-07-04T11:26:22.784Z,6.70
2018-07-04T11:27:22.820Z,9.10
2018-07-04T11:28:23.097Z,8.30
2018-07-04T11:29:21.921Z,7.30
2018-07-04T11:30:22.729Z,6.30
2018-07-04T11:31:22.621Z,6.40
2018-07-04T11:32:46.250Z,9.20
2018-07-04T11:33:45.984Z,9.80
2018-07-04T11:34:46.821Z,7.80
2018-07-04T11:35:47.757Z,7.90
2018-07-04T11:36:46.404Z,7.90
2018-07-04T11:37:46.130Z,6.80
2018-07-04T11:38:46.709Z,7.30
2018-07-04T11:39:46.284Z,7.10
2018-07-04T11:40:45.982Z,8.40
2018-07-04T11:41:46.778Z,6.80
2018-07-04T11:42:49.589Z,4.40
2018-07-04T11:43:46.275Z,6.90
2018-07-04T11:44:46.023Z,6.40
2018-07-04T11:46:10.869Z,6.90
2018-07-04T11:47:35.136Z,5.40
2018-07-04T11:48:35.827Z,6.50
2018-07-04T11:49:36.065Z,8.00
2018-07-04T11:50:35.816Z,7.10
2018-07-04T11:51:57.016Z,6.40
2018-07-04T11:53:23.553Z,6.60
2018-07-04T11:54:24.164Z,5.00
2018-07-04T11:55:49.256Z,7.20
2018-07-04T11:56:48.784Z,6.40
2018-07-04T11:57:48.413Z,4.50
2018-07-04T11:58:48.363Z,7.70
2018-07-04T11:59:49.380Z,8.40
2018-07-04T12:00:49.078Z,5.70
2018-07-04T12:01:49.062Z,6.70
2018-07-04T12:02:48.668Z,9.10
2018-07-04T12:03:48.674Z,8.50
2018-07-04T12:04:48.678Z,7.30
2018-07-04T12:05:48.557Z,7.70
2018-07-04T12:06:48.756Z,10.00
2018-07-04T12:07:48.834Z,5.30
2018-07-04T12:08:48.668Z,6.50
2018-07-04T12:10:12.369Z,7.00
2018-07-04T12:11:36.678Z,7.80
2018-07-04T12:12:38.659Z,4.90
2018-07-04T12:13:37.363Z,12.40
2018-07-04T12:15:00.647Z,7.70
2018-07-04T12:16:01.132Z,7.90
2018-07-04T12:17:02.080Z,8.20
2018-07-04T12:18:01.990Z,6.50
2018-07-04T12:19:24.148Z,4.80
2018-07-04T12:20:25.138Z,8.60
2018-07-04T12:21:24.983Z,6.50
2018-07-04T12:22:24.743Z,9.20
2018-07-04T12:23:25.809Z,5.60
2018-07-04T12:24:24.868Z,6.20
2018-07-04T12:25:24.802Z,5.50
2018-07-04T12:26:24.752Z,4.70
2018-07-04T12:27:24.743Z,9.10
2018-07-04T12:28:25.496Z,9.00
2018-07-04T12:29:25.436Z,6.70
2018-07-04T12:30:24.387Z,5.30
2018-07-04T12:31:25.322Z,6.20
2018-07-04T12:32:24.949Z,5.70
2018-07-04T12:33:24.917Z,10.10
2018-07-04T12:34:26.016Z,4.50
2018-07-04T12:35:24.983Z,8.40
2018-07-04T12:36:25.010Z,5.40
2018-07-04T12:37:48.678Z,5.60
2018-07-04T12:38:49.165Z,6.40
2018-07-04T12:39:49.031Z,8.00
2018-07-04T12:40:49.349Z,5.70
2018-07-04T12:42:36.688Z,6.00
2018-07-04T12:43:37.729Z,7.90
2018-07-04T12:45:01.249Z,7.50
2018-07-04T12:46:02.864Z,5.60
2018-07-04T12:47:01.608Z,5.60
2018-07-04T12:48:01.332Z,5.80
2018-07-04T12:49:02.368Z,6.30
2018-07-04T12:50:02.044Z,7.60
2018-07-04T12:51:02.233Z,12.10
2018-07-04T12:52:01.854Z,6.20
2018-07-04T12:53:01.832Z,8.10
2018-07-04T12:54:01.873Z,8.50
2018-07-04T12:55:23.613Z,6.00
2018-07-04T12:56:25.156Z,4.90
2018-07-04T12:57:23.979Z,3.80
2018-07-04T12:58:24.012Z,4.70
2018-07-04T12:59:23.876Z,5.80
2018-07-04T13:01:34.471Z,6.70
2018-07-04T13:02:34.655Z,6.20
2018-07-04T13:03:34.793Z,7.60
2018-07-04T13:04:34.832Z,4.80
2018-07-04T13:05:35.010Z,5.70
2018-07-04T13:06:57.973Z,8.60
2018-07-04T13:07:58.915Z,7.40
2018-07-04T13:08:58.999Z,5.50
2018-07-04T13:09:59.460Z,6.00
2018-07-04T13:10:58.153Z,4.50
2018-07-04T13:11:58.995Z,7.10
2018-07-04T13:12:59.085Z,7.00
2018-07-04T13:13:58.810Z,7.50
2018-07-04T13:14:58.933Z,5.20
2018-07-04T13:16:22.177Z,7.50
2018-07-04T13:17:27.337Z,6.80
2018-07-04T13:18:22.952Z,7.10
2018-07-04T13:19:23.226Z,8.30
2018-07-04T13:20:23.546Z,4.20
2018-07-04T13:21:44.510Z,4.60
2018-07-04T13:22:44.565Z,8.50
2018-07-04T13:23:44.943Z,8.40
2018-07-04T13:24:44.868Z,8.10
2018-07-04T13:25:44.689Z,15.30
2018-07-04T13:26:44.993Z,5.50
2018-07-04T13:27:45.009Z,11.40
2018-07-04T13:28:44.970Z,5.20
2018-07-04T13:30:08.801Z,6.50
2018-07-04T13:31:08.859Z,10.80
2018-07-04T13:32:08.659Z,5.30
2018-07-04T13:33:09.197Z,5.60
2018-07-04T13:34:09.822Z,7.80
2018-07-04T13:35:34.424Z,5.90
2018-07-04T13:36:34.310Z,9.00
2018-07-04T13:37:33.436Z,7.00
2018-07-04T13:38:33.611Z,5.00
2018-07-04T13:39:57.707Z,6.40
2018-07-04T13:41:01.094Z,7.30
2018-07-04T13:41:59.950Z,5.60
2018-07-04T13:43:21.243Z,5.50
2018-07-04T13:44:21.765Z,3.60
2018-07-04T13:45:21.394Z,6.30